Terminal Aerodrome Forecast
Issued by NWS Nashville, TN

Current Version | Previous Version | Text Only | Print | Product List | Glossary Off
Versions: 1 2 3 4 5 6 7 8 9 10 11 12 13 14 15 16 17 18 19 20 21 22 23 24 25

093
FTUS44 KOHX 292337
TAFCSV
TAF
KCSV 292337Z 3000/3024 31006KT P6SM VCSH SCT050 BKN080
      TEMPO 3001/3005 BKN050 BKN080
     FM300600 00000KT P6SM SCT007 BKN020
      TEMPO 3010/3014 BKN007 OVC020
     FM301600 26005KT P6SM BKN030=

USA.gov is the U.S. government's official web portal to all federal, state and local government web resources and services.